Time;durP1;ratioP1;P1;durP2;ratioP2;P2;SDS_P1;SDS_P2;PMS_P1;PMS_P2;Temp;Humidity;BMP_temperature;BMP_pressure;BME280_temperature;BME280_humidity;BME280_pressure;Samples;Min_cycle;Max_cycle;Signal;HPM_P1;HPM_P2
2021/11/08 00:01:36;;;;;;;6.40;3.00;;;12.30;73.40;;;;;;2588391;53;20921;-71
2021/11/08 00:04:04;;;;;;;4.85;2.30;;;12.30;73.40;;;;;;2322701;54;21904;-70
2021/11/08 00:06:33;;;;;;;4.07;1.87;;;12.30;73.40;;;;;;2545848;53;21484;-70
2021/11/08 00:09:01;;;;;;;4.15;1.83;;;12.30;73.40;;;;;;2323591;53;21029;-70
2021/11/08 00:11:28;;;;;;;3.15;1.30;;;12.30;73.40;;;;;;2588609;53;21453;-70
2021/11/08 00:13:59;;;;;;;3.22;1.17;;;12.30;73.40;;;;;;2324072;54;21028;-70
2021/11/08 00:16:43;;;;;;;3.78;1.27;;;12.30;73.40;;;;;;2318274;54;20965;-70
2021/11/08 00:23:11;;;;;;;2.20;1.02;;;12.20;73.30;;;;;;2570277;53;20947;-70
2021/11/08 00:25:41;;;;;;;3.00;1.05;;;12.30;73.30;;;;;;2326410;54;20984;-70
2021/11/08 00:28:09;;;;;;;4.25;1.60;;;12.20;73.20;;;;;;2556617;52;20929;-70
2021/11/08 00:30:36;;;;;;;1.95;0.93;;;12.20;73.20;;;;;;2327673;54;20944;-70
2021/11/08 00:33:14;;;;;;;2.47;0.98;;;12.20;73.20;;;;;;2575478;53;20944;-70
2021/11/08 00:35:45;;;;;;;2.22;1.00;;;12.20;73.10;;;;;;2554654;53;20952;-71
2021/11/08 00:38:14;;;;;;;4.20;1.30;;;12.20;73.20;;;;;;2568753;53;20993;-70
2021/11/08 00:40:42;;;;;;;3.25;1.50;;;12.20;73.20;;;;;;2335165;54;21645;-70
2021/11/08 00:43:09;;;;;;;3.80;1.12;;;12.20;73.90;;;;;;2578434;53;21784;-71
2021/11/08 00:45:35;;;;;;;3.15;1.30;;;12.20;73.20;;;;;;2323266;54;21580;-70
2021/11/08 00:48:06;;;;;;;2.70;1.27;;;12.20;73.30;;;;;;2553975;53;21936;-70
2021/11/08 00:50:36;;;;;;;2.67;1.25;;;12.20;74.00;;;;;;2335975;54;21093;-70
2021/11/08 00:53:02;;;;;;;2.97;1.30;;;12.10;73.20;;;;;;2338656;54;20968;-70
2021/11/08 00:55:30;;;;;;;2.62;1.37;;;12.10;73.20;;;;;;2568849;53;21990;-70
2021/11/08 00:58:01;;;;;;;2.83;1.33;;;12.10;73.10;;;;;;2575497;53;21052;-70
2021/11/08 01:00:30;;;;;;;4.28;1.52;;;12.10;73.10;;;;;;2561352;53;20981;-70
2021/11/08 01:02:58;;;;;;;2.55;1.15;;;12.10;73.10;;;;;;2304774;55;21029;-69
2021/11/08 01:05:27;;;;;;;5.28;2.53;;;12.10;73.10;;;;;;2556221;53;21004;-70
2021/11/08 01:07:54;;;;;;;8.27;3.45;;;12.10;73.00;;;;;;2318626;54;21036;-70
2021/11/08 01:10:21;;;;;;;16.48;7.95;;;12.10;73.00;;;;;;2340359;54;20929;-70
2021/11/08 01:12:48;;;;;;;19.30;9.65;;;12.10;73.10;;;;;;2584250;53;21466;-70
2021/11/08 01:15:15;;;;;;;23.02;12.05;;;12.10;73.10;;;;;;2321398;54;21005;-70
2021/11/08 01:17:41;;;;;;;27.25;12.32;;;12.10;73.10;;;;;;2587094;53;20921;-70
2021/11/08 01:20:10;;;;;;;25.05;11.32;;;12.00;73.40;;;;;;2319658;54;20945;-70
2021/11/08 01:22:38;;;;;;;19.17;9.07;;;12.00;73.10;;;;;;2587951;53;20992;-70
2021/11/08 01:25:05;;;;;;;14.20;6.40;;;12.10;73.10;;;;;;2318263;54;20905;-70
2021/11/08 01:27:35;;;;;;;12.68;5.15;;;12.00;73.00;;;;;;2576070;53;20986;-70
2021/11/08 01:30:14;;;;;;;10.48;4.12;;;12.00;72.90;;;;;;2321300;55;20905;-70
2021/11/08 01:32:41;;;;;;;8.45;3.47;;;12.00;72.90;;;;;;2559489;53;21020;-70
2021/11/08 01:35:12;;;;;;;5.60;2.47;;;12.00;72.90;;;;;;2323466;54;20997;-70
2021/11/08 01:37:41;;;;;;;9.43;2.60;;;12.00;73.00;;;;;;2583920;53;20927;-70
2021/11/08 01:40:11;;;;;;;4.35;1.90;;;12.00;73.00;;;;;;2343080;54;21064;-70
2021/11/08 01:42:37;;;;;;;5.53;2.20;;;12.00;73.00;;;;;;2323558;54;21790;-70
2021/11/08 01:45:04;;;;;;;5.75;2.10;;;12.00;73.10;;;;;;2588578;53;20954;-70
2021/11/08 01:47:34;;;;;;;6.18;1.85;;;12.00;73.10;;;;;;2342316;54;20941;-70
2021/11/08 01:50:04;;;;;;;4.00;1.90;;;12.00;73.10;;;;;;2321238;54;21064;-70
2021/11/08 01:52:36;;;;;;;6.43;2.10;;;12.00;73.20;;;;;;2568710;53;21398;-70
2021/11/08 01:55:04;;;;;;;4.75;1.80;;;12.00;73.10;;;;;;2322672;54;20950;-70
2021/11/08 01:57:31;;;;;;;6.10;2.10;;;11.90;73.00;;;;;;2561044;53;21017;-70
2021/11/08 02:00:01;;;;;;;3.45;1.52;;;12.00;73.10;;;;;;2316686;55;20989;-70
2021/11/08 02:02:27;;;;;;;4.82;2.30;;;11.90;73.00;;;;;;2555731;53;21518;-70
2021/11/08 02:04:54;;;;;;;5.03;1.60;;;12.00;73.20;;;;;;2335425;54;20949;-70
2021/11/08 02:07:42;;;;;;;3.65;1.37;;;12.00;73.20;;;;;;2559584;53;21030;-69
2021/11/08 02:10:14;;;;;;;3.15;1.45;;;11.90;73.10;;;;;;2558446;53;21548;-70
2021/11/08 02:12:40;;;;;;;2.90;1.30;;;11.90;73.00;;;;;;2318911;54;21026;-70
2021/11/08 02:15:08;;;;;;;6.57;1.70;;;11.90;72.90;;;;;;2334327;54;21453;-70
2021/11/08 02:17:43;;;;;;;;;;;11.90;72.90;;;;;;2588436;53;20934;-70
2021/11/08 02:20:32;;;;;;;3.05;1.12;;;11.90;71.90;;;;;;2572112;53;20102;-70
2021/11/08 02:23:07;;;;;;;2.75;1.00;;;11.90;72.60;;;;;;2331296;54;20970;-70
2021/11/08 02:25:37;;;;;;;4.28;1.25;;;11.90;72.40;;;;;;2571146;53;21405;-70
2021/11/08 02:28:28;;;;;;;4.68;1.42;;;11.90;72.40;;;;;;2321207;54;21661;-70
2021/11/08 02:30:57;;;;;;;4.53;1.40;;;11.90;72.10;;;;;;2563588;53;21016;-70
2021/11/08 02:34:46;;;;;;;4.53;1.60;;;11.80;72.00;;;;;;2566749;53;21450;-70
2021/11/08 02:37:21;;;;;;;2.83;1.15;;;11.70;71.00;;;;;;2331565;54;21029;-70
2021/11/08 02:39:59;;;;;;;4.65;1.50;;;11.70;71.50;;;;;;2336773;54;20919;-70
2021/11/08 02:42:39;;;;;;;5.20;1.40;;;11.60;71.40;;;;;;2558361;53;21328;-70
2021/11/08 02:45:31;;;;;;;3.87;1.60;;;11.60;71.10;;;;;;2552657;53;20989;-70
2021/11/08 02:48:18;;;;;;;3.60;1.33;;;11.60;71.20;;;;;;2538821;53;21891;-70
2021/11/08 02:50:44;;;;;;;4.10;1.40;;;11.50;71.00;;;;;;2323866;54;21555;-69
2021/11/08 02:53:14;;;;;;;4.68;1.40;;;11.40;70.80;;;;;;2569205;53;21083;-70
2021/11/08 02:55:41;;;;;;;4.47;1.65;;;11.30;70.70;;;;;;2312272;55;20949;-69
2021/11/08 02:58:07;;;;;;;4.15;1.52;;;11.30;70.60;;;;;;2319684;54;20945;-70
2021/11/08 03:00:35;;;;;;;2.75;1.20;;;11.20;70.40;;;;;;2330824;54;20960;-69
2021/11/08 03:03:01;;;;;;;5.07;1.60;;;11.10;70.40;;;;;;2563995;53;21057;-70
2021/11/08 03:05:32;;;;;;;4.97;1.40;;;11.10;70.60;;;;;;2335589;54;20937;-70
2021/11/08 03:08:00;;;;;;;3.00;1.42;;;11.00;70.70;;;;;;2345667;54;21284;-70
2021/11/08 03:10:27;;;;;;;5.78;1.85;;;11.00;70.70;;;;;;2324950;54;21849;-70
2021/11/08 03:12:57;;;;;;;5.97;1.40;;;10.90;70.80;;;;;;2338668;53;20935;-69
2021/11/08 03:16:06;;;;;;;4.07;1.35;;;10.80;70.90;;;;;;2341048;54;20945;-70
2021/11/08 03:18:37;;;;;;;5.68;1.23;;;10.80;71.10;;;;;;2327138;54;21510;-70
2021/11/08 03:21:04;;;;;;;7.75;2.00;;;10.80;71.40;;;;;;2335896;54;21004;-70
2021/11/08 03:23:31;;;;;;;5.60;1.40;;;10.70;71.40;;;;;;2343738;54;20921;-70
2021/11/08 03:28:44;;;;;;;4.70;1.50;;;10.70;71.70;;;;;;2590556;53;20905;-70
2021/11/08 03:31:11;;;;;;;3.00;1.40;;;10.70;71.70;;;;;;2562716;53;21005;-70
2021/11/08 03:33:39;;;;;;;5.28;1.52;;;10.70;71.70;;;;;;2344692;54;20945;-69
2021/11/08 03:36:09;;;;;;;3.72;1.35;;;10.80;71.80;;;;;;2340430;54;20969;-70
2021/11/08 03:38:38;;;;;;;4.25;1.30;;;10.60;71.50;;;;;;2329159;54;20969;-70
2021/11/08 03:41:04;;;;;;;7.37;2.00;;;10.60;71.50;;;;;;2589690;53;20897;-69
2021/11/08 03:43:31;;;;;;;4.70;1.50;;;10.60;71.50;;;;;;2327907;54;21008;-70
2021/11/08 03:45:58;;;;;;;5.47;1.50;;;10.60;71.50;;;;;;2563545;53;20973;-70
2021/11/08 03:48:25;;;;;;;4.00;1.33;;;10.50;71.40;;;;;;2556695;53;20965;-70
2021/11/08 03:50:55;;;;;;;3.75;1.27;;;10.50;71.50;;;;;;2572116;53;21515;-69
2021/11/08 03:53:21;;;;;;;5.50;1.67;;;10.50;71.50;;;;;;2569782;53;20953;-70
2021/11/08 03:55:48;;;;;;;3.17;1.45;;;10.50;71.40;;;;;;2591126;53;20909;-70
2021/11/08 03:58:15;;;;;;;4.35;1.30;;;10.50;71.30;;;;;;2344678;54;21389;-69
2021/11/08 04:00:41;;;;;;;4.50;1.37;;;10.40;71.20;;;;;;2590524;53;20997;-69
2021/11/08 04:03:09;;;;;;;3.30;1.20;;;10.40;71.20;;;;;;2327868;54;20949;-70
2021/11/08 04:05:36;;;;;;;4.75;1.60;;;10.40;71.20;;;;;;2551184;53;21103;-70
2021/11/08 04:08:10;;;;;;;4.32;1.58;;;10.30;71.10;;;;;;2320825;54;20976;-70
2021/11/08 04:10:38;;;;;;;5.28;1.75;;;10.30;71.00;;;;;;2572184;53;20979;-70
2021/11/08 04:13:04;;;;;;;3.47;1.42;;;10.40;71.10;;;;;;2333917;54;21198;-70
2021/11/08 04:15:38;;;;;;;3.50;1.45;;;10.20;70.80;;;;;;2570744;53;20905;-70
2021/11/08 04:18:07;;;;;;;5.40;1.70;;;10.20;70.80;;;;;;2338056;54;21421;-69
2021/11/08 04:20:34;;;;;;;4.28;1.67;;;10.20;70.90;;;;;;2578014;53;20948;-70
2021/11/08 04:23:01;;;;;;;4.85;1.90;;;10.10;70.80;;;;;;2338147;54;21339;-70
2021/11/08 04:25:28;;;;;;;7.05;1.40;;;10.10;70.90;;;;;;2575486;53;21703;-70
2021/11/08 04:27:57;;;;;;;3.55;1.35;;;10.10;71.00;;;;;;2344425;54;20972;-69
2021/11/08 04:30:25;;;;;;;3.97;1.50;;;10.00;71.10;;;;;;2591604;53;20921;-70
2021/11/08 04:42:24;;;;;;;4.43;1.20;;;9.90;72.20;;;;;;2334641;54;21006;-69
2021/11/08 04:50:47;;;;;;;3.30;1.50;;;9.90;72.40;;;;;;2561629;53;21077;-69
2021/11/08 04:53:32;;;;;;;3.65;1.60;;;9.80;72.50;;;;;;2322111;54;20966;-69
2021/11/08 04:56:35;;;;;;;4.12;1.55;;;9.80;72.70;;;;;;2332056;54;21509;-70
2021/11/08 05:31:34;;;;;;;4.65;1.80;;;9.80;73.20;;;;;;2331902;54;20945;-70
2021/11/08 05:34:01;;;;;;;4.75;1.73;;;9.80;73.10;;;;;;2319526;54;21306;-70
2021/11/08 05:36:27;;;;;;;4.22;1.67;;;9.70;73.00;;;;;;2341113;54;20933;-70
2021/11/08 05:38:54;;;;;;;7.05;1.80;;;9.70;73.10;;;;;;2343605;54;20988;-70
2021/11/08 05:41:20;;;;;;;4.20;1.40;;;9.70;73.20;;;;;;2344735;54;20933;-70
2021/11/08 05:43:47;;;;;;;4.22;1.60;;;9.70;73.30;;;;;;2344014;54;20985;-70
2021/11/08 05:46:13;;;;;;;5.70;1.55;;;9.70;73.50;;;;;;2331339;54;21029;-70
2021/11/08 05:48:42;;;;;;;4.07;1.30;;;9.70;73.50;;;;;;2338215;54;20965;-70
2021/11/08 05:51:09;;;;;;;4.28;1.35;;;9.80;73.50;;;;;;2561870;53;21291;-70
2021/11/08 05:53:36;;;;;;;4.60;1.60;;;9.80;73.60;;;;;;2344254;54;21445;-70
2021/11/08 05:56:22;;;;;;;6.47;1.92;;;9.70;73.50;;;;;;2567159;53;20997;-70
2021/11/08 06:00:08;;;;;;;3.92;1.65;;;9.80;73.70;;;;;;2323028;55;21020;-70
2021/11/08 06:49:48;;;;;;;5.45;2.85;;;9.40;71.50;;;;;;2325345;54;20993;-71
2021/11/08 06:52:15;;;;;;;7.15;2.22;;;9.30;71.40;;;;;;2557094;53;20957;-69
2021/11/08 06:54:44;;;;;;;8.40;2.83;;;9.30;71.40;;;;;;2341217;54;20921;-70
2021/11/08 06:59:49;;;;;;;6.87;2.75;;;9.20;71.40;;;;;;2341594;54;21836;-69
2021/11/08 07:02:16;;;;;;;6.37;2.67;;;9.10;71.30;;;;;;2580621;53;20973;-69
2021/11/08 07:04:43;;;;;;;7.05;2.72;;;9.10;71.40;;;;;;2557075;53;21466;-70
2021/11/08 07:07:09;;;;;;;3.92;1.90;;;9.00;71.40;;;;;;2542550;53;20973;-69
2021/11/08 07:09:48;;;;;;;6.37;2.17;;;9.00;71.30;;;;;;2337222;54;21099;-69
2021/11/08 07:12:14;;;;;;;5.18;2.30;;;8.90;71.00;;;;;;2572044;53;20917;-69
2021/11/08 07:14:41;;;;;;;8.38;2.33;;;8.90;71.30;;;;;;2343526;54;20969;-69
2021/11/08 07:17:07;;;;;;;7.35;2.15;;;8.80;71.20;;;;;;2324377;54;20949;-69
2021/11/08 07:19:34;;;;;;;5.00;2.12;;;8.80;71.30;;;;;;2335210;54;20945;-69
2021/11/08 07:22:04;;;;;;;5.60;2.10;;;8.80;71.50;;;;;;2529675;54;21029;-69
2021/11/08 07:24:30;;;;;;;6.47;2.25;;;8.70;71.60;;;;;;2322686;54;20898;-69
2021/11/08 07:26:58;;;;;;;7.00;2.37;;;8.70;71.70;;;;;;2575603;53;21299;-70
2021/11/08 07:29:26;;;;;;;7.57;2.37;;;8.70;72.10;;;;;;2324087;54;20990;-69
2021/11/08 07:31:53;;;;;;;6.18;2.17;;;8.70;72.30;;;;;;2590022;53;20989;-69
2021/11/08 07:34:21;;;;;;;10.20;2.95;;;8.70;72.50;;;;;;2566862;53;21001;-69
2021/11/08 07:36:47;;;;;;;4.57;1.87;;;8.60;72.60;;;;;;2336292;54;21449;-69
2021/11/08 07:39:17;;;;;;;4.35;2.15;;;8.70;72.90;;;;;;2328038;54;20941;-70
2021/11/08 07:41:43;;;;;;;5.78;2.30;;;8.70;73.30;;;;;;2589582;53;20941;-69
2021/11/08 07:44:09;;;;;;;5.28;2.10;;;8.70;73.70;;;;;;2343191;54;21466;-70
2021/11/08 07:46:36;;;;;;;6.18;2.58;;;8.70;74.00;;;;;;2537963;53;20993;-69
2021/11/08 07:49:03;;;;;;;5.60;2.50;;;8.80;74.50;;;;;;2330785;54;21007;-70
2021/11/08 07:51:29;;;;;;;7.07;3.72;;;8.80;74.80;;;;;;2569606;53;20929;-70
2021/11/08 07:53:56;;;;;;;7.80;3.62;;;8.90;75.20;;;;;;2324049;54;21763;-70
2021/11/08 07:56:22;;;;;;;8.15;3.87;;;9.00;75.60;;;;;;2335712;54;21096;-69
2021/11/08 07:58:49;;;;;;;8.98;3.20;;;9.00;75.80;;;;;;2321920;54;20996;-70
2021/11/08 08:01:16;;;;;;;6.00;3.10;;;9.20;76.30;;;;;;2589638;53;21848;-69
2021/11/08 08:03:43;;;;;;;5.97;2.80;;;9.20;76.40;;;;;;2564273;53;21017;-70
2021/11/08 08:06:09;;;;;;;7.53;3.40;;;9.40;76.70;;;;;;2590289;53;20973;-69
2021/11/08 08:08:36;;;;;;;6.43;3.20;;;9.40;76.80;;;;;;2570391;53;20968;-70
2021/11/08 08:11:04;;;;;;;8.68;3.33;;;9.50;76.90;;;;;;2581003;53;21025;-70
2021/11/08 08:13:31;;;;;;;9.20;2.97;;;9.60;77.10;;;;;;2340640;54;21016;-70
2021/11/08 08:15:59;;;;;;;6.07;2.75;;;9.70;77.30;;;;;;2558756;53;21021;-70
2021/11/08 08:18:39;;;;;;;5.82;2.47;;;9.80;77.30;;;;;;2313753;54;21056;-70
2021/11/08 08:21:07;;;;;;;6.40;3.23;;;10.00;76.40;;;;;;2555466;53;21005;-70
2021/11/08 08:23:54;;;;;;;5.93;2.47;;;10.10;76.20;;;;;;2309357;55;20933;-70
2021/11/08 08:26:22;;;;;;;6.80;3.35;;;10.20;76.10;;;;;;2590408;53;20997;-70
2021/11/08 08:28:49;;;;;;;7.72;3.20;;;10.30;75.90;;;;;;2330295;54;21021;-70
2021/11/08 08:31:15;;;;;;;7.32;2.95;;;10.30;75.70;;;;;;2582762;53;20996;-70
2021/11/08 08:33:42;;;;;;;8.07;3.12;;;10.40;75.80;;;;;;2337187;54;21040;-70
2021/11/08 08:36:08;;;;;;;8.52;3.08;;;10.50;75.90;;;;;;2558423;53;20981;-70
2021/11/08 08:38:35;;;;;;;6.70;2.92;;;10.60;75.90;;;;;;2561764;53;20952;-70
2021/11/08 08:41:01;;;;;;;9.00;3.70;;;10.60;75.70;;;;;;2329272;54;20993;-70
2021/11/08 08:43:31;;;;;;;6.05;2.72;;;10.70;75.80;;;;;;2342964;54;21053;-70
2021/11/08 08:45:57;;;;;;;6.87;2.97;;;10.80;75.70;;;;;;2590251;53;20922;-70
2021/11/08 08:48:25;;;;;;;6.20;2.75;;;10.80;75.60;;;;;;2588823;53;21024;-70
2021/11/08 08:50:55;;;;;;;8.93;3.97;;;10.90;75.60;;;;;;2567444;53;21442;-71
2021/11/08 08:53:22;;;;;;;8.23;4.15;;;11.00;75.60;;;;;;2516739;54;21505;-71
2021/11/08 08:55:49;;;;;;;5.78;3.10;;;11.00;75.50;;;;;;2541926;53;20937;-71
2021/11/08 08:58:16;;;;;;;6.57;2.90;;;11.10;75.50;;;;;;2571691;53;20996;-70
2021/11/08 09:00:44;;;;;;;8.52;3.33;;;11.10;75.50;;;;;;2570707;53;20953;-71
2021/11/08 09:03:12;;;;;;;8.45;3.37;;;11.20;75.50;;;;;;2311821;54;21048;-70
2021/11/08 09:05:38;;;;;;;6.65;3.35;;;11.20;75.40;;;;;;2571913;53;20944;-72
2021/11/08 09:08:05;;;;;;;7.70;3.35;;;11.30;75.60;;;;;;2309327;54;20917;-70
2021/11/08 09:10:34;;;;;;;6.57;3.17;;;11.30;75.90;;;;;;2577563;53;21012;-70
2021/11/08 09:13:01;;;;;;;8.32;3.35;;;11.40;76.90;;;;;;2323719;54;20965;-70
2021/11/08 09:15:28;;;;;;;7.45;3.45;;;11.60;78.40;;;;;;2315527;54;21396;-71
2021/11/08 09:17:54;;;;;;;6.47;2.83;;;11.80;79.50;;;;;;2578467;53;20922;-71
2021/11/08 09:20:21;;;;;;;6.50;3.33;;;12.10;79.80;;;;;;2331659;54;21127;-71
2021/11/08 09:22:49;;;;;;;7.72;3.85;;;12.30;79.60;;;;;;2329295;54;21063;-71
2021/11/08 09:25:19;;;;;;;10.05;4.25;;;12.50;79.50;;;;;;2325608;54;20965;-70
2021/11/08 09:27:46;;;;;;;9.10;3.90;;;12.70;79.20;;;;;;2308238;54;20945;-70
2021/11/08 09:30:16;;;;;;;7.60;4.45;;;12.90;79.00;;;;;;2313745;54;21135;-71
2021/11/08 09:32:43;;;;;;;11.82;4.07;;;13.10;78.60;;;;;;2327333;54;21544;-70
2021/11/08 09:35:10;;;;;;;8.20;4.10;;;13.10;78.00;;;;;;2333502;54;21316;-70
2021/11/08 09:37:46;;;;;;;7.13;3.80;;;13.20;77.30;;;;;;2282410;54;1865455;-72
2021/11/08 09:40:15;;;;;;;11.02;4.35;;;13.30;76.40;;;;;;2307982;54;20937;-71
2021/11/08 09:42:42;;;;;;;8.30;3.45;;;13.30;75.50;;;;;;2309582;54;21036;-70
2021/11/08 09:45:12;;;;;;;6.97;3.60;;;13.30;74.90;;;;;;2576543;53;21474;-70
2021/11/08 09:47:38;;;;;;;12.80;3.65;;;13.30;74.30;;;;;;2333678;54;21028;-71
2021/11/08 09:50:09;;;;;;;10.60;3.70;;;13.20;73.40;;;;;;2548399;53;22030;-71
2021/11/08 09:52:40;;;;;;;7.05;3.22;;;13.20;72.90;;;;;;2331878;54;20949;-70
2021/11/08 09:55:10;;;;;;;7.55;3.15;;;13.10;72.90;;;;;;2325378;54;22147;-70
2021/11/08 09:57:37;;;;;;;9.82;2.97;;;13.00;72.90;;;;;;2551848;53;20929;-70
2021/11/08 10:00:41;;;;;;;6.90;2.90;;;13.00;73.50;;;;;;2324737;54;20973;-71
2021/11/08 10:03:18;;;;;;;12.10;3.53;;;13.00;73.80;;;;;;2314982;54;20969;-71
2021/11/08 10:05:47;;;;;;;9.02;3.75;;;13.00;75.00;;;;;;2304323;54;21923;-71
2021/11/08 10:08:22;;;;;;;8.73;4.32;;;13.10;76.10;;;;;;2541269;53;21039;-71
2021/11/08 10:10:52;;;;;;;10.27;3.90;;;13.10;76.60;;;;;;2326038;54;21119;-71
2021/11/08 10:13:21;;;;;;;9.00;3.30;;;13.20;77.00;;;;;;2551127;53;21008;-71
2021/11/08 10:15:52;;;;;;;13.93;3.78;;;13.30;77.70;;;;;;2308252;54;20965;-71
2021/11/08 10:18:19;;;;;;;8.80;4.10;;;13.60;78.00;;;;;;2310965;54;20980;-71
2021/11/08 10:20:48;;;;;;;9.80;3.62;;;13.60;78.30;;;;;;2571758;53;20956;-71
2021/11/08 10:23:17;;;;;;;8.80;3.67;;;13.80;78.30;;;;;;2309207;54;21071;-71
2021/11/08 10:25:47;;;;;;;8.13;3.85;;;14.00;78.30;;;;;;2313899;54;20929;-71
2021/11/08 10:28:20;;;;;;;8.70;3.35;;;14.00;77.60;;;;;;2317224;54;20968;-72
2021/11/08 10:30:50;;;;;;;8.85;3.70;;;14.20;77.40;;;;;;2302456;55;21727;-71
2021/11/08 10:33:21;;;;;;;7.78;4.03;;;14.20;76.50;;;;;;2315667;54;20953;-71
2021/11/08 10:35:52;;;;;;;10.45;3.85;;;14.30;75.60;;;;;;2331875;54;21374;-70
2021/11/08 10:38:22;;;;;;;;;;;14.30;74.10;;;;;;2325703;54;21644;-72
2021/11/08 10:40:52;;;;;;;8.50;3.78;;;14.30;73.10;;;;;;2519557;54;20178;-70
2021/11/08 10:43:41;;;;;;;9.48;3.95;;;14.30;72.90;;;;;;2532499;53;20909;-72
2021/11/08 10:46:15;;;;;;;9.57;3.72;;;14.20;71.90;;;;;;2328364;54;21017;-72
2021/11/08 10:48:50;;;;;;;7.40;4.07;;;14.10;73.30;;;;;;2540226;53;21250;-70
2021/11/08 10:51:24;;;;;;;6.72;3.60;;;14.10;73.70;;;;;;2330134;54;20965;-71
2021/11/08 10:53:59;;;;;;;11.20;3.90;;;14.10;74.20;;;;;;2328129;54;22067;-71
2021/11/08 10:56:51;;;;;;;8.95;3.53;;;14.10;74.20;;;;;;2319614;54;20980;-71
2021/11/08 10:59:19;;;;;;;6.82;3.90;;;14.10;74.20;;;;;;2303020;55;21063;-70
2021/11/08 11:01:51;;;;;;;9.18;4.40;;;14.10;75.00;;;;;;2320762;54;22210;-71
2021/11/08 11:04:33;;;;;;;11.93;4.90;;;14.20;74.70;;;;;;2296199;55;21073;-71
2021/11/08 11:06:59;;;;;;;10.88;4.47;;;14.20;74.00;;;;;;2331705;54;20964;-71
2021/11/08 11:09:30;;;;;;;13.18;4.75;;;14.30;74.50;;;;;;2547842;53;21937;-71
2021/11/08 11:12:16;;;;;;;11.27;4.60;;;14.30;74.40;;;;;;2320108;54;20937;-71
2021/11/08 11:14:46;;;;;;;10.25;4.70;;;14.30;73.50;;;;;;2320751;54;20962;-71
2021/11/08 11:17:17;;;;;;;13.25;5.05;;;14.30;74.10;;;;;;2310895;54;21996;-72
2021/11/08 11:19:44;;;;;;;11.55;4.78;;;14.30;73.60;;;;;;2572444;53;21861;-71
2021/11/08 11:22:14;;;;;;;10.88;4.85;;;14.30;73.40;;;;;;2573591;53;20992;-72
2021/11/08 11:24:49;;;;;;;10.23;4.45;;;14.30;73.10;;;;;;2326737;54;20977;-72
2021/11/08 11:28:21;;;;;;;9.38;4.22;;;14.20;72.80;;;;;;2311044;54;20976;-72
2021/11/08 11:30:47;;;;;;;13.27;4.55;;;14.20;71.70;;;;;;2327602;54;20889;-71
2021/11/08 11:33:18;;;;;;;9.07;4.82;;;14.20;72.90;;;;;;2571079;53;21418;-73
2021/11/08 11:35:49;;;;;;;8.00;4.43;;;14.20;72.70;;;;;;2328230;54;21928;-72
2021/11/08 11:38:21;;;;;;;8.25;4.62;;;14.10;72.80;;;;;;2309023;54;20953;-72
2021/11/08 11:40:54;;;;;;;13.52;4.65;;;14.10;73.10;;;;;;2314275;54;20901;-73
2021/11/08 11:43:33;;;;;;;13.30;4.87;;;14.10;72.80;;;;;;2315051;54;21119;-72
2021/11/08 11:46:00;;;;;;;8.55;4.32;;;14.10;73.10;;;;;;2303856;54;20925;-71
2021/11/08 11:48:29;;;;;;;11.00;4.00;;;14.10;73.60;;;;;;2552721;53;20988;-72
2021/11/08 11:51:05;;;;;;;10.23;3.78;;;14.10;73.70;;;;;;2541512;53;20933;-71
2021/11/08 11:53:32;;;;;;;8.35;4.05;;;14.20;74.10;;;;;;2318723;54;20937;-72
2021/11/08 11:56:00;;;;;;;7.43;3.55;;;14.10;74.00;;;;;;2317112;54;20913;-72
2021/11/08 11:58:26;;;;;;;8.98;3.60;;;14.20;74.30;;;;;;2318659;54;21096;-72
2021/11/08 12:00:53;;;;;;;8.18;3.80;;;14.20;74.50;;;;;;2316870;54;20921;-72
2021/11/08 12:03:20;;;;;;;11.23;3.80;;;14.30;74.60;;;;;;2314593;54;21147;-71
2021/11/08 12:05:47;;;;;;;10.27;3.97;;;14.30;74.50;;;;;;2306622;54;20989;-73
2021/11/08 12:08:16;;;;;;;7.28;3.35;;;14.40;74.40;;;;;;2327235;54;20956;-71
2021/11/08 12:10:47;;;;;;;8.73;4.32;;;14.40;74.10;;;;;;2307476;54;20968;-73
2021/11/08 12:13:18;;;;;;;10.85;3.28;;;14.50;73.90;;;;;;2327201;54;20929;-73
2021/11/08 12:15:44;;;;;;;8.02;3.17;;;14.50;73.90;;;;;;2326105;54;21901;-71
2021/11/08 12:18:13;;;;;;;7.72;3.40;;;14.50;74.10;;;;;;2322980;54;20989;-72
2021/11/08 12:20:43;;;;;;;10.07;3.58;;;14.50;74.10;;;;;;2313396;54;20981;-72
2021/11/08 12:23:13;;;;;;;6.72;3.00;;;14.60;74.20;;;;;;2538773;53;20957;-72
2021/11/08 12:25:46;;;;;;;10.75;3.08;;;14.60;74.00;;;;;;2326884;54;21297;-73
2021/11/08 12:28:19;;;;;;;7.95;2.70;;;14.80;74.60;;;;;;2327334;54;21413;-73
2021/11/08 12:30:50;;;;;;;11.32;2.95;;;14.80;74.40;;;;;;2541547;53;20980;-71
2021/11/08 12:33:34;;;;;;;7.95;2.70;;;14.80;74.60;;;;;;2302907;54;21479;-72
2021/11/08 12:36:33;;;;;;;7.05;2.70;;;14.90;74.10;;;;;;2518305;53;20977;-73
2021/11/08 12:39:10;;;;;;;6.90;2.58;;;15.00;72.80;;;;;;2326744;54;20937;-72
2021/11/08 12:41:48;;;;;;;10.07;3.00;;;15.00;74.40;;;;;;2321434;54;20952;-72
2021/11/08 12:44:22;;;;;;;7.50;2.87;;;15.10;73.60;;;;;;2315136;54;22031;-73
2021/11/08 12:46:51;;;;;;;10.63;2.78;;;15.10;74.10;;;;;;2565482;53;20961;-73
2021/11/08 12:50:02;;;;;;;8.10;3.28;;;15.20;74.60;;;;;;2302889;54;20957;-71
2021/11/08 12:52:31;;;;;;;9.77;2.90;;;15.30;72.70;;;;;;2571376;53;21522;-74
2021/11/08 12:55:11;;;;;;;8.00;3.10;;;15.40;75.10;;;;;;2326098;54;21048;-73
2021/11/08 12:57:49;;;;;;;8.80;3.42;;;15.60;74.00;;;;;;2285275;55;21411;-74
2021/11/08 13:00:18;;;;;;;10.05;3.35;;;15.60;74.40;;;;;;2312942;54;20977;-74
2021/11/08 13:02:55;;;;;;;8.40;2.90;;;15.70;74.00;;;;;;2306065;54;20953;-74
2021/11/08 13:05:47;;;;;;;8.00;2.65;;;15.80;73.60;;;;;;2317890;54;21033;-74
2021/11/08 13:08:26;;;;;;;9.52;2.78;;;15.80;73.70;;;;;;2304503;54;22034;-73
2021/11/08 13:11:09;;;;;;;8.40;2.80;;;15.90;73.40;;;;;;2550061;53;20980;-71
2021/11/08 13:13:41;;;;;;;10.45;3.03;;;16.00;74.20;;;;;;2320772;54;22226;-72
2021/11/08 13:16:12;;;;;;;9.23;3.20;;;16.00;74.00;;;;;;2544249;53;21042;-73
2021/11/08 13:18:45;;;;;;;8.80;3.03;;;16.10;73.40;;;;;;2309228;54;22122;-72
2021/11/08 13:21:22;;;;;;;8.27;2.90;;;16.10;72.80;;;;;;2303183;54;20965;-72
2021/11/08 13:23:52;;;;;;;7.32;2.90;;;16.10;72.80;;;;;;2306290;54;20937;-72
2021/11/08 13:26:19;;;;;;;9.05;3.10;;;16.20;73.60;;;;;;2545901;53;21016;-71
2021/11/08 13:28:45;;;;;;;7.20;2.90;;;16.20;74.50;;;;;;2310447;54;21010;-71
2021/11/08 13:31:13;;;;;;;13.32;3.55;;;16.30;74.00;;;;;;2292788;55;21491;-72
2021/11/08 13:33:46;;;;;;;9.45;3.15;;;16.30;74.20;;;;;;2540929;53;21080;-72
2021/11/08 13:36:14;;;;;;;8.40;3.42;;;16.50;74.50;;;;;;2310034;54;21394;-70
2021/11/08 13:38:54;;;;;;;8.18;2.72;;;16.50;74.60;;;;;;2316963;54;20952;-70
2021/11/08 13:41:30;;;;;;;8.70;2.62;;;16.50;74.00;;;;;;2327828;54;21048;-70
2021/11/08 13:44:00;;;;;;;14.73;3.58;;;16.60;73.80;;;;;;2332708;54;20988;-70
2021/11/08 13:46:34;;;;;;;10.68;2.97;;;16.60;74.20;;;;;;2322217;54;21000;-70
2021/11/08 13:49:14;;;;;;;8.15;2.15;;;16.70;74.30;;;;;;2316820;54;20957;-70
2021/11/08 13:51:58;;;;;;;10.70;2.33;;;16.70;72.80;;;;;;2328595;54;21051;-70
2021/11/08 13:54:30;;;;;;;5.43;1.92;;;16.70;70.50;;;;;;2554635;53;21008;-70
2021/11/08 13:57:03;;;;;;;7.28;2.12;;;16.60;70.90;;;;;;2322302;54;20946;-70
2021/11/08 13:59:48;;;;;;;3.72;1.80;;;16.50;70.30;;;;;;2309483;54;20940;-70
2021/11/08 14:02:20;;;;;;;8.25;2.83;;;16.40;68.70;;;;;;2334007;54;21910;-70
2021/11/08 14:04:51;;;;;;;4.85;2.17;;;16.30;69.50;;;;;;2538048;53;21095;-70
2021/11/08 14:07:22;;;;;;;7.95;2.15;;;16.10;68.80;;;;;;2322685;54;21045;-72
2021/11/08 14:09:54;;;;;;;5.82;1.95;;;16.00;69.10;;;;;;2314530;54;21041;-72
2021/11/08 14:12:28;;;;;;;4.60;1.58;;;16.00;69.50;;;;;;2317361;54;20933;-72
2021/11/08 14:14:56;;;;;;;6.07;1.90;;;15.80;69.50;;;;;;2571404;53;21044;-72
2021/11/08 14:17:27;;;;;;;5.87;2.35;;;15.70;69.80;;;;;;2308826;54;20917;-72
2021/11/08 14:19:57;;;;;;;7.78;1.70;;;15.60;69.80;;;;;;2575952;53;20936;-72
2021/11/08 14:22:28;;;;;;;5.85;1.70;;;15.50;69.60;;;;;;2332994;54;20980;-71
2021/11/08 14:25:02;;;;;;;6.00;1.70;;;15.40;69.90;;;;;;2336201;54;21509;-72
2021/11/08 14:27:32;;;;;;;9.23;2.75;;;15.30;70.10;;;;;;2309436;54;21336;-72
2021/11/08 14:30:15;;;;;;;7.45;1.98;;;15.30;70.20;;;;;;2576304;53;20933;-72
2021/11/08 14:32:45;;;;;;;6.05;1.90;;;15.30;69.60;;;;;;2312848;54;20925;-72
2021/11/08 14:35:16;;;;;;;6.72;2.58;;;15.20;70.60;;;;;;2556914;53;20993;-72
2021/11/08 14:37:59;;;;;;;7.95;1.98;;;15.30;71.00;;;;;;2317667;54;20972;-71
2021/11/08 14:40:36;;;;;;;6.12;1.95;;;15.10;70.50;;;;;;2528927;53;20937;-72
2021/11/08 14:43:23;;;;;;;8.27;2.08;;;15.10;70.70;;;;;;2549195;53;20969;-72
2021/11/08 14:45:58;;;;;;;7.03;1.80;;;15.10;70.60;;;;;;2553501;53;21913;-72
2021/11/08 14:48:27;;;;;;;5.95;2.12;;;15.00;70.60;;;;;;2311513;55;20941;-72
2021/11/08 14:51:57;;;;;;;11.82;2.00;;;15.00;71.20;;;;;;2313050;55;21983;-72
2021/11/08 14:54:26;;;;;;;5.85;1.67;;;15.00;69.60;;;;;;2316502;54;21021;-72
2021/11/08 14:56:56;;;;;;;5.80;1.77;;;15.00;71.50;;;;;;2310731;55;21112;-72